createdAt,value
2022-09-26T00:02:47.954Z,2.00
2022-09-26T00:16:47.956Z,1.90
2022-09-26T00:30:48.005Z,1.90
2022-09-26T00:44:47.962Z,1.85
2022-09-26T00:58:48.029Z,1.70
2022-09-26T01:12:48.017Z,1.65
2022-09-26T01:26:48.041Z,1.55
2022-09-26T01:40:48.109Z,1.60
2022-09-26T01:54:48.044Z,1.40
2022-09-26T02:08:48.069Z,1.30
2022-09-26T02:22:48.136Z,1.40
2022-09-26T02:36:48.058Z,1.40
2022-09-26T02:50:48.189Z,1.20
2022-09-26T03:04:48.288Z,1.20
2022-09-26T03:18:48.202Z,1.20
2022-09-26T03:32:48.259Z,1.00
2022-09-26T03:46:48.277Z,1.30
2022-09-26T04:00:48.297Z,1.00
2022-09-26T04:14:48.276Z,0.90
2022-09-26T04:28:48.296Z,0.80
2022-09-26T04:42:48.357Z,1.10
2022-09-26T04:56:48.406Z,0.90
2022-09-26T05:11:48.390Z,1.10
2022-09-26T05:26:48.418Z,1.30
2022-09-26T05:42:48.458Z,1.40
2022-09-26T05:57:48.440Z,2.45
2022-09-26T06:12:50.946Z,4.30
2022-09-26T06:27:48.474Z,4.50
2022-09-26T06:42:48.465Z,4.70
2022-09-26T06:57:48.672Z,4.90
2022-09-26T07:12:48.576Z,4.90
2022-09-26T07:27:48.559Z,4.70
2022-09-26T07:43:04.186Z,4.50
2022-09-26T07:57:48.602Z,4.50
2022-09-26T08:12:48.568Z,4.60
2022-09-26T08:27:48.579Z,4.60
2022-09-26T08:42:48.729Z,4.60
2022-09-26T08:57:48.760Z,4.40
2022-09-26T09:12:48.817Z,4.70
2022-09-26T09:27:58.630Z,4.10
2022-09-26T09:42:48.869Z,3.90
2022-09-26T09:57:48.882Z,4.20
2022-09-26T10:12:48.918Z,3.90
2022-09-26T10:27:48.952Z,4.00
2022-09-26T10:43:34.396Z,3.60
2022-09-26T10:57:34.104Z,3.60
2022-09-26T11:12:34.205Z,3.30
2022-09-26T11:27:34.779Z,3.80
2022-09-26T11:42:34.948Z,3.30
2022-09-26T11:57:34.603Z,3.40
2022-09-26T12:12:38.283Z,3.40
2022-09-26T12:27:34.715Z,3.60
2022-09-26T12:42:34.701Z,3.60
2022-09-26T12:57:34.810Z,3.80
2022-09-26T13:12:34.714Z,3.30
2022-09-26T13:27:34.737Z,2.60
2022-09-26T13:42:34.793Z,2.00
2022-09-26T13:57:34.805Z,2.00
2022-09-26T14:12:34.835Z,2.20
2022-09-26T14:27:34.827Z,2.00
2022-09-26T14:42:34.884Z,1.80
2022-09-26T14:57:34.892Z,2.00
2022-09-26T15:12:34.866Z,1.90
2022-09-26T15:27:35.399Z,1.80
2022-09-26T15:42:34.958Z,1.60
2022-09-26T15:57:34.988Z,1.70
2022-09-26T16:12:35.064Z,1.60
2022-09-26T16:27:35.240Z,1.50
2022-09-26T16:35:42.521Z,1.70
2022-09-26T16:37:04.247Z,1.55
2022-09-26T16:50:04.576Z,1.80
2022-09-26T17:05:03.188Z,1.80
2022-09-26T17:20:03.218Z,2.40
2022-09-26T17:36:03.632Z,2.70
2022-09-26T17:50:03.939Z,2.70
2022-09-26T18:04:03.898Z,2.60
2022-09-26T18:18:04.005Z,2.90
2022-09-26T18:32:04.108Z,3.10
2022-09-26T18:46:05.362Z,3.10
2022-09-26T19:00:04.452Z,3.60
2022-09-26T19:14:05.683Z,3.10
2022-09-26T19:28:05.847Z,3.10
2022-09-26T19:42:05.706Z,3.20
2022-09-26T19:56:05.360Z,3.00
2022-09-26T20:10:05.423Z,3.00
2022-09-26T20:24:06.877Z,2.90
2022-09-26T20:38:06.627Z,2.60
2022-09-26T20:52:05.714Z,2.50
2022-09-26T21:06:06.046Z,2.60
2022-09-26T21:20:07.132Z,2.60
2022-09-26T21:34:06.699Z,2.30
2022-09-26T21:48:05.914Z,2.20
2022-09-26T22:02:05.939Z,2.30
2022-09-26T22:16:05.869Z,1.80
2022-09-26T22:30:05.923Z,2.00
2022-09-26T22:44:05.921Z,2.00
2022-09-26T22:58:05.889Z,1.90
2022-09-26T23:12:06.715Z,1.80
2022-09-26T23:26:06.708Z,1.80
2022-09-26T23:40:06.415Z,1.70
2022-09-26T23:54:06.708Z,1.70
